sensor_id;sensor_type;location;lat;lon;timestamp;P1;durP1;ratioP1;P2;durP2;ratioP2
16963;SDS011;8598;50.508;10.436;2022-09-09T00:02:11;3.67;;;2.50;;
16963;SDS011;8598;50.508;10.436;2022-09-09T00:04:46;7.07;;;2.50;;
16963;SDS011;8598;50.508;10.436;2022-09-09T00:07:21;3.60;;;2.80;;
16963;SDS011;8598;50.508;10.436;2022-09-09T00:09:59;3.67;;;2.30;;
16963;SDS011;8598;50.508;10.436;2022-09-09T00:12:34;2.80;;;2.50;;
16963;SDS011;8598;50.508;10.436;2022-09-09T00:15:07;3.33;;;2.63;;
16963;SDS011;8598;50.508;10.436;2022-09-09T00:17:41;3.40;;;2.60;;
16963;SDS011;8598;50.508;10.436;2022-09-09T00:20:13;4.60;;;3.10;;
16963;SDS011;8598;50.508;10.436;2022-09-09T00:22:46;3.37;;;2.70;;
16963;SDS011;8598;50.508;10.436;2022-09-09T00:25:20;4.17;;;2.40;;
16963;SDS011;8598;50.508;10.436;2022-09-09T00:27:55;4.53;;;2.57;;
16963;SDS011;8598;50.508;10.436;2022-09-09T00:30:23;4.47;;;2.80;;
16963;SDS011;8598;50.508;10.436;2022-09-09T00:32:52;5.37;;;2.70;;
16963;SDS011;8598;50.508;10.436;2022-09-09T00:35:24;4.57;;;2.83;;
16963;SDS011;8598;50.508;10.436;2022-09-09T00:37:54;3.23;;;2.50;;
16963;SDS011;8598;50.508;10.436;2022-09-09T00:40:28;4.83;;;3.37;;
16963;SDS011;8598;50.508;10.436;2022-09-09T00:43:03;5.20;;;2.67;;
16963;SDS011;8598;50.508;10.436;2022-09-09T00:45:48;6.23;;;2.90;;
16963;SDS011;8598;50.508;10.436;2022-09-09T00:48:28;8.67;;;2.93;;
16963;SDS011;8598;50.508;10.436;2022-09-09T00:51:06;3.27;;;2.83;;
16963;SDS011;8598;50.508;10.436;2022-09-09T00:53:51;9.13;;;3.27;;
16963;SDS011;8598;50.508;10.436;2022-09-09T00:56:38;7.60;;;2.40;;
16963;SDS011;8598;50.508;10.436;2022-09-09T00:59:16;3.40;;;2.60;;
16963;SDS011;8598;50.508;10.436;2022-09-09T01:01:50;5.77;;;2.93;;
16963;SDS011;8598;50.508;10.436;2022-09-09T01:04:21;4.43;;;2.90;;
16963;SDS011;8598;50.508;10.436;2022-09-09T01:06:55;3.80;;;2.90;;
16963;SDS011;8598;50.508;10.436;2022-09-09T01:09:32;4.60;;;2.77;;
16963;SDS011;8598;50.508;10.436;2022-09-09T01:12:07;9.80;;;2.70;;
16963;SDS011;8598;50.508;10.436;2022-09-09T01:14:42;6.23;;;3.03;;
16963;SDS011;8598;50.508;10.436;2022-09-09T01:17:14;3.33;;;2.80;;
16963;SDS011;8598;50.508;10.436;2022-09-09T01:19:47;4.17;;;2.90;;
16963;SDS011;8598;50.508;10.436;2022-09-09T01:22:26;4.37;;;3.10;;
16963;SDS011;8598;50.508;10.436;2022-09-09T01:25:18;5.90;;;3.27;;
16963;SDS011;8598;50.508;10.436;2022-09-09T01:27:55;3.63;;;3.00;;
16963;SDS011;8598;50.508;10.436;2022-09-09T01:30:25;6.57;;;3.23;;
16963;SDS011;8598;50.508;10.436;2022-09-09T01:32:54;8.00;;;4.03;;
16963;SDS011;8598;50.508;10.436;2022-09-09T01:35:31;5.50;;;3.00;;
16963;SDS011;8598;50.508;10.436;2022-09-09T01:38:04;8.70;;;3.03;;
16963;SDS011;8598;50.508;10.436;2022-09-09T01:40:32;6.53;;;3.23;;
16963;SDS011;8598;50.508;10.436;2022-09-09T01:43:00;4.10;;;3.23;;
16963;SDS011;8598;50.508;10.436;2022-09-09T01:45:28;5.13;;;2.90;;
16963;SDS011;8598;50.508;10.436;2022-09-09T01:47:56;4.20;;;2.93;;
16963;SDS011;8598;50.508;10.436;2022-09-09T01:50:23;6.07;;;3.30;;
16963;SDS011;8598;50.508;10.436;2022-09-09T01:52:52;4.70;;;3.57;;
16963;SDS011;8598;50.508;10.436;2022-09-09T01:55:25;5.53;;;3.07;;
16963;SDS011;8598;50.508;10.436;2022-09-09T01:57:57;3.90;;;2.90;;
16963;SDS011;8598;50.508;10.436;2022-09-09T02:00:36;4.13;;;3.27;;
16963;SDS011;8598;50.508;10.436;2022-09-09T02:03:09;6.40;;;3.50;;
16963;SDS011;8598;50.508;10.436;2022-09-09T02:05:45;4.13;;;3.13;;
16963;SDS011;8598;50.508;10.436;2022-09-09T02:08:21;4.33;;;3.00;;
16963;SDS011;8598;50.508;10.436;2022-09-09T02:10:53;5.07;;;2.73;;
16963;SDS011;8598;50.508;10.436;2022-09-09T02:13:27;4.53;;;3.30;;
16963;SDS011;8598;50.508;10.436;2022-09-09T02:15:55;4.03;;;2.83;;
16963;SDS011;8598;50.508;10.436;2022-09-09T02:18:26;7.57;;;3.30;;
16963;SDS011;8598;50.508;10.436;2022-09-09T02:20:56;4.20;;;2.97;;
16963;SDS011;8598;50.508;10.436;2022-09-09T02:23:24;4.03;;;3.10;;
16963;SDS011;8598;50.508;10.436;2022-09-09T02:25:52;5.57;;;2.80;;
16963;SDS011;8598;50.508;10.436;2022-09-09T02:28:21;5.27;;;3.23;;
16963;SDS011;8598;50.508;10.436;2022-09-09T02:30:52;5.73;;;3.30;;
16963;SDS011;8598;50.508;10.436;2022-09-09T02:33:21;3.00;;;2.70;;
16963;SDS011;8598;50.508;10.436;2022-09-09T02:35:50;3.53;;;2.77;;
16963;SDS011;8598;50.508;10.436;2022-09-09T02:38:18;4.10;;;2.87;;
16963;SDS011;8598;50.508;10.436;2022-09-09T02:40:48;7.33;;;3.00;;
16963;SDS011;8598;50.508;10.436;2022-09-09T02:43:15;3.07;;;2.53;;
16963;SDS011;8598;50.508;10.436;2022-09-09T02:45:47;5.20;;;3.53;;
16963;SDS011;8598;50.508;10.436;2022-09-09T02:48:25;4.03;;;3.20;;
16963;SDS011;8598;50.508;10.436;2022-09-09T02:51:00;4.50;;;2.83;;
16963;SDS011;8598;50.508;10.436;2022-09-09T02:53:37;6.53;;;3.00;;
16963;SDS011;8598;50.508;10.436;2022-09-09T02:56:12;4.03;;;3.23;;
16963;SDS011;8598;50.508;10.436;2022-09-09T02:58:41;5.63;;;3.27;;
16963;SDS011;8598;50.508;10.436;2022-09-09T03:01:08;3.83;;;3.03;;
16963;SDS011;8598;50.508;10.436;2022-09-09T03:03:37;6.67;;;3.37;;
16963;SDS011;8598;50.508;10.436;2022-09-09T03:06:06;4.60;;;3.50;;
16963;SDS011;8598;50.508;10.436;2022-09-09T03:08:33;4.20;;;3.03;;
16963;SDS011;8598;50.508;10.436;2022-09-09T03:11:00;8.27;;;3.30;;
16963;SDS011;8598;50.508;10.436;2022-09-09T03:13:27;6.43;;;3.13;;
16963;SDS011;8598;50.508;10.436;2022-09-09T03:15:55;9.57;;;3.43;;
16963;SDS011;8598;50.508;10.436;2022-09-09T03:18:22;6.67;;;3.30;;
16963;SDS011;8598;50.508;10.436;2022-09-09T03:20:50;9.97;;;3.67;;
16963;SDS011;8598;50.508;10.436;2022-09-09T03:23:19;6.27;;;3.37;;
16963;SDS011;8598;50.508;10.436;2022-09-09T03:25:46;4.53;;;3.10;;
16963;SDS011;8598;50.508;10.436;2022-09-09T03:28:14;4.03;;;2.93;;
16963;SDS011;8598;50.508;10.436;2022-09-09T03:30:41;5.43;;;3.67;;
16963;SDS011;8598;50.508;10.436;2022-09-09T03:33:08;5.90;;;3.43;;
16963;SDS011;8598;50.508;10.436;2022-09-09T03:35:35;5.67;;;3.93;;
16963;SDS011;8598;50.508;10.436;2022-09-09T03:38:03;8.07;;;4.00;;
16963;SDS011;8598;50.508;10.436;2022-09-09T03:40:30;8.17;;;3.60;;
16963;SDS011;8598;50.508;10.436;2022-09-09T03:42:57;9.73;;;3.90;;
16963;SDS011;8598;50.508;10.436;2022-09-09T03:45:24;5.63;;;4.00;;
16963;SDS011;8598;50.508;10.436;2022-09-09T03:47:51;6.10;;;3.77;;
16963;SDS011;8598;50.508;10.436;2022-09-09T03:50:18;5.37;;;3.37;;
16963;SDS011;8598;50.508;10.436;2022-09-09T03:52:44;6.17;;;3.67;;
16963;SDS011;8598;50.508;10.436;2022-09-09T03:55:13;8.27;;;3.90;;
16963;SDS011;8598;50.508;10.436;2022-09-09T03:57:40;7.47;;;3.87;;
16963;SDS011;8598;50.508;10.436;2022-09-09T04:00:07;5.83;;;4.23;;
16963;SDS011;8598;50.508;10.436;2022-09-09T04:02:35;5.40;;;2.90;;
16963;SDS011;8598;50.508;10.436;2022-09-09T04:05:01;6.00;;;3.50;;
16963;SDS011;8598;50.508;10.436;2022-09-09T04:07:28;8.10;;;3.57;;
16963;SDS011;8598;50.508;10.436;2022-09-09T04:09:55;7.13;;;3.33;;
16963;SDS011;8598;50.508;10.436;2022-09-09T04:12:23;6.30;;;3.30;;
16963;SDS011;8598;50.508;10.436;2022-09-09T04:14:50;3.73;;;3.30;;
16963;SDS011;8598;50.508;10.436;2022-09-09T04:17:16;4.60;;;3.27;;
16963;SDS011;8598;50.508;10.436;2022-09-09T04:19:43;7.43;;;3.97;;
16963;SDS011;8598;50.508;10.436;2022-09-09T04:22:10;4.47;;;3.43;;
16963;SDS011;8598;50.508;10.436;2022-09-09T04:24:37;6.60;;;3.80;;
16963;SDS011;8598;50.508;10.436;2022-09-09T04:27:04;8.40;;;3.77;;
16963;SDS011;8598;50.508;10.436;2022-09-09T04:29:32;5.90;;;3.87;;
16963;SDS011;8598;50.508;10.436;2022-09-09T04:31:59;5.03;;;3.53;;
16963;SDS011;8598;50.508;10.436;2022-09-09T04:34:26;6.13;;;3.50;;
16963;SDS011;8598;50.508;10.436;2022-09-09T04:36:53;6.60;;;3.43;;
16963;SDS011;8598;50.508;10.436;2022-09-09T04:39:20;4.27;;;3.17;;
16963;SDS011;8598;50.508;10.436;2022-09-09T04:41:46;5.87;;;3.70;;
16963;SDS011;8598;50.508;10.436;2022-09-09T04:44:16;6.93;;;3.60;;
16963;SDS011;8598;50.508;10.436;2022-09-09T04:46:44;7.03;;;3.83;;
16963;SDS011;8598;50.508;10.436;2022-09-09T04:49:11;5.90;;;3.30;;
16963;SDS011;8598;50.508;10.436;2022-09-09T04:51:38;5.80;;;3.20;;
16963;SDS011;8598;50.508;10.436;2022-09-09T04:54:04;7.33;;;3.47;;
16963;SDS011;8598;50.508;10.436;2022-09-09T04:56:32;6.67;;;3.87;;
16963;SDS011;8598;50.508;10.436;2022-09-09T04:58:58;5.75;;;3.75;;
16963;SDS011;8598;50.508;10.436;2022-09-09T05:01:27;4.03;;;3.43;;
16963;SDS011;8598;50.508;10.436;2022-09-09T05:03:55;4.70;;;3.93;;
16963;SDS011;8598;50.508;10.436;2022-09-09T05:06:22;7.17;;;4.10;;
16963;SDS011;8598;50.508;10.436;2022-09-09T05:08:49;4.70;;;3.30;;
16963;SDS011;8598;50.508;10.436;2022-09-09T05:11:17;11.73;;;3.43;;
16963;SDS011;8598;50.508;10.436;2022-09-09T05:13:46;9.30;;;3.50;;
16963;SDS011;8598;50.508;10.436;2022-09-09T05:16:13;4.83;;;3.40;;
16963;SDS011;8598;50.508;10.436;2022-09-09T05:18:40;4.40;;;3.13;;
16963;SDS011;8598;50.508;10.436;2022-09-09T05:21:10;4.63;;;3.07;;
16963;SDS011;8598;50.508;10.436;2022-09-09T05:23:37;3.53;;;2.87;;
16963;SDS011;8598;50.508;10.436;2022-09-09T05:26:05;7.60;;;3.60;;
16963;SDS011;8598;50.508;10.436;2022-09-09T05:28:33;6.07;;;3.63;;
16963;SDS011;8598;50.508;10.436;2022-09-09T05:31:02;6.03;;;3.23;;
16963;SDS011;8598;50.508;10.436;2022-09-09T05:33:30;4.20;;;2.97;;
16963;SDS011;8598;50.508;10.436;2022-09-09T05:35:58;9.50;;;2.63;;
16963;SDS011;8598;50.508;10.436;2022-09-09T05:38:28;3.40;;;2.90;;
16963;SDS011;8598;50.508;10.436;2022-09-09T05:40:55;4.30;;;3.03;;
16963;SDS011;8598;50.508;10.436;2022-09-09T05:43:22;5.20;;;3.10;;
16963;SDS011;8598;50.508;10.436;2022-09-09T05:45:58;4.60;;;3.30;;
16963;SDS011;8598;50.508;10.436;2022-09-09T05:48:27;6.60;;;2.70;;
16963;SDS011;8598;50.508;10.436;2022-09-09T05:50:55;3.80;;;2.87;;
16963;SDS011;8598;50.508;10.436;2022-09-09T05:53:22;4.77;;;2.97;;
16963;SDS011;8598;50.508;10.436;2022-09-09T05:55:50;5.53;;;3.40;;
16963;SDS011;8598;50.508;10.436;2022-09-09T05:58:23;8.30;;;2.87;;
16963;SDS011;8598;50.508;10.436;2022-09-09T06:00:50;6.33;;;2.90;;
16963;SDS011;8598;50.508;10.436;2022-09-09T06:03:17;2.70;;;2.03;;
16963;SDS011;8598;50.508;10.436;2022-09-09T06:05:43;4.03;;;2.40;;
16963;SDS011;8598;50.508;10.436;2022-09-09T06:08:10;3.60;;;2.20;;
16963;SDS011;8598;50.508;10.436;2022-09-09T06:10:37;3.10;;;2.60;;
16963;SDS011;8598;50.508;10.436;2022-09-09T06:13:05;2.80;;;2.60;;
16963;SDS011;8598;50.508;10.436;2022-09-09T06:15:32;2.80;;;2.60;;
16963;SDS011;8598;50.508;10.436;2022-09-09T06:17:59;4.60;;;2.43;;
16963;SDS011;8598;50.508;10.436;2022-09-09T06:20:25;3.97;;;2.70;;
16963;SDS011;8598;50.508;10.436;2022-09-09T06:22:55;3.13;;;2.40;;
16963;SDS011;8598;50.508;10.436;2022-09-09T06:25:22;3.23;;;2.43;;
16963;SDS011;8598;50.508;10.436;2022-09-09T06:27:49;7.67;;;2.20;;
16963;SDS011;8598;50.508;10.436;2022-09-09T06:30:17;5.07;;;2.77;;
16963;SDS011;8598;50.508;10.436;2022-09-09T06:32:44;5.03;;;2.83;;
16963;SDS011;8598;50.508;10.436;2022-09-09T06:35:11;5.87;;;2.97;;
16963;SDS011;8598;50.508;10.436;2022-09-09T06:37:38;3.73;;;2.63;;
16963;SDS011;8598;50.508;10.436;2022-09-09T06:40:05;3.07;;;2.03;;
16963;SDS011;8598;50.508;10.436;2022-09-09T06:42:33;2.50;;;1.63;;
16963;SDS011;8598;50.508;10.436;2022-09-09T06:45:00;1.67;;;1.30;;
16963;SDS011;8598;50.508;10.436;2022-09-09T06:47:29;3.17;;;1.10;;
16963;SDS011;8598;50.508;10.436;2022-09-09T06:49:56;4.43;;;1.63;;
16963;SDS011;8598;50.508;10.436;2022-09-09T06:52:23;1.73;;;1.20;;
16963;SDS011;8598;50.508;10.436;2022-09-09T06:54:50;2.47;;;1.30;;
16963;SDS011;8598;50.508;10.436;2022-09-09T06:57:18;4.73;;;1.67;;
16963;SDS011;8598;50.508;10.436;2022-09-09T06:59:45;2.60;;;1.53;;
16963;SDS011;8598;50.508;10.436;2022-09-09T07:02:12;2.33;;;1.17;;
16963;SDS011;8598;50.508;10.436;2022-09-09T07:04:40;2.57;;;1.60;;
16963;SDS011;8598;50.508;10.436;2022-09-09T07:07:08;3.43;;;1.97;;
16963;SDS011;8598;50.508;10.436;2022-09-09T07:09:37;2.83;;;2.00;;
16963;SDS011;8598;50.508;10.436;2022-09-09T07:12:04;1.97;;;1.67;;
16963;SDS011;8598;50.508;10.436;2022-09-09T07:14:31;4.27;;;2.10;;
16963;SDS011;8598;50.508;10.436;2022-09-09T07:16:59;3.77;;;1.97;;
16963;SDS011;8598;50.508;10.436;2022-09-09T07:19:25;4.47;;;1.50;;
16963;SDS011;8598;50.508;10.436;2022-09-09T07:21:54;4.23;;;1.67;;
16963;SDS011;8598;50.508;10.436;2022-09-09T07:24:20;2.90;;;1.43;;
16963;SDS011;8598;50.508;10.436;2022-09-09T07:26:47;2.93;;;1.70;;
16963;SDS011;8598;50.508;10.436;2022-09-09T07:29:14;2.47;;;1.20;;
16963;SDS011;8598;50.508;10.436;2022-09-09T07:31:41;6.03;;;1.30;;
16963;SDS011;8598;50.508;10.436;2022-09-09T07:34:07;3.20;;;1.20;;
16963;SDS011;8598;50.508;10.436;2022-09-09T07:36:35;5.70;;;1.50;;
16963;SDS011;8598;50.508;10.436;2022-09-09T07:39:05;3.57;;;1.50;;
16963;SDS011;8598;50.508;10.436;2022-09-09T07:41:33;4.60;;;1.37;;
16963;SDS011;8598;50.508;10.436;2022-09-09T07:44:05;4.83;;;1.10;;
16963;SDS011;8598;50.508;10.436;2022-09-09T07:46:33;3.70;;;0.90;;
16963;SDS011;8598;50.508;10.436;2022-09-09T07:49:01;2.47;;;0.80;;
16963;SDS011;8598;50.508;10.436;2022-09-09T07:51:28;3.40;;;1.10;;
16963;SDS011;8598;50.508;10.436;2022-09-09T07:53:58;7.50;;;1.20;;
16963;SDS011;8598;50.508;10.436;2022-09-09T07:56:28;2.73;;;1.10;;
16963;SDS011;8598;50.508;10.436;2022-09-09T07:58:56;5.30;;;1.00;;
16963;SDS011;8598;50.508;10.436;2022-09-09T08:01:25;3.10;;;0.90;;
16963;SDS011;8598;50.508;10.436;2022-09-09T08:03:54;5.53;;;1.10;;
16963;SDS011;8598;50.508;10.436;2022-09-09T08:06:24;4.23;;;1.73;;
16963;SDS011;8598;50.508;10.436;2022-09-09T08:08:52;3.63;;;1.03;;
16963;SDS011;8598;50.508;10.436;2022-09-09T08:11:21;4.60;;;0.90;;
16963;SDS011;8598;50.508;10.436;2022-09-09T08:13:51;2.90;;;1.10;;
16963;SDS011;8598;50.508;10.436;2022-09-09T08:16:19;5.73;;;2.00;;
16963;SDS011;8598;50.508;10.436;2022-09-09T08:18:47;4.33;;;1.00;;
16963;SDS011;8598;50.508;10.436;2022-09-09T08:21:16;3.33;;;1.20;;
16963;SDS011;8598;50.508;10.436;2022-09-09T08:23:45;1.60;;;0.90;;
16963;SDS011;8598;50.508;10.436;2022-09-09T08:26:14;3.80;;;1.00;;
16963;SDS011;8598;50.508;10.436;2022-09-09T08:28:41;4.53;;;1.13;;
16963;SDS011;8598;50.508;10.436;2022-09-09T08:31:11;4.53;;;1.07;;
16963;SDS011;8598;50.508;10.436;2022-09-09T08:33:39;2.80;;;0.90;;
16963;SDS011;8598;50.508;10.436;2022-09-09T08:36:08;3.50;;;0.97;;
16963;SDS011;8598;50.508;10.436;2022-09-09T08:38:36;1.57;;;0.93;;
16963;SDS011;8598;50.508;10.436;2022-09-09T08:41:07;3.73;;;1.13;;
16963;SDS011;8598;50.508;10.436;2022-09-09T08:45:57;1.93;;;0.90;;
16963;SDS011;8598;50.508;10.436;2022-09-09T08:47:09;5.77;;;0.97;;
16963;SDS011;8598;50.508;10.436;2022-09-09T08:52:48;2.60;;;1.10;;
16963;SDS011;8598;50.508;10.436;2022-09-09T08:55:20;2.60;;;0.80;;
16963;SDS011;8598;50.508;10.436;2022-09-09T08:57:52;4.27;;;1.17;;
16963;SDS011;8598;50.508;10.436;2022-09-09T09:00:21;3.37;;;1.00;;
16963;SDS011;8598;50.508;10.436;2022-09-09T09:02:56;5.97;;;1.03;;
16963;SDS011;8598;50.508;10.436;2022-09-09T09:05:31;7.60;;;1.17;;
16963;SDS011;8598;50.508;10.436;2022-09-09T09:08:05;2.23;;;1.00;;
16963;SDS011;8598;50.508;10.436;2022-09-09T09:10:44;4.47;;;0.77;;
16963;SDS011;8598;50.508;10.436;2022-09-09T09:13:14;2.10;;;0.80;;
16963;SDS011;8598;50.508;10.436;2022-09-09T09:15:48;2.23;;;0.87;;
16963;SDS011;8598;50.508;10.436;2022-09-09T09:18:21;4.30;;;0.93;;
16963;SDS011;8598;50.508;10.436;2022-09-09T09:20:54;2.93;;;0.87;;
16963;SDS011;8598;50.508;10.436;2022-09-09T09:23:29;2.60;;;1.17;;
16963;SDS011;8598;50.508;10.436;2022-09-09T09:26:06;1.33;;;0.80;;
16963;SDS011;8598;50.508;10.436;2022-09-09T09:28:35;2.50;;;1.07;;
16963;SDS011;8598;50.508;10.436;2022-09-09T09:31:03;6.73;;;1.07;;
16963;SDS011;8598;50.508;10.436;2022-09-09T09:33:34;3.77;;;1.00;;
16963;SDS011;8598;50.508;10.436;2022-09-09T09:36:09;2.60;;;1.07;;
16963;SDS011;8598;50.508;10.436;2022-09-09T09:38:50;2.90;;;1.07;;
16963;SDS011;8598;50.508;10.436;2022-09-09T09:41:28;3.40;;;0.67;;
16963;SDS011;8598;50.508;10.436;2022-09-09T09:43:56;9.27;;;1.50;;
16963;SDS011;8598;50.508;10.436;2022-09-09T09:46:23;5.87;;;1.40;;
16963;SDS011;8598;50.508;10.436;2022-09-09T09:48:59;2.90;;;0.97;;
16963;SDS011;8598;50.508;10.436;2022-09-09T09:51:28;2.00;;;0.87;;
16963;SDS011;8598;50.508;10.436;2022-09-09T09:54:06;4.07;;;1.30;;
16963;SDS011;8598;50.508;10.436;2022-09-09T09:56:39;5.07;;;1.17;;
16963;SDS011;8598;50.508;10.436;2022-09-09T09:59:18;5.47;;;1.40;;
16963;SDS011;8598;50.508;10.436;2022-09-09T10:01:46;3.03;;;0.80;;
16963;SDS011;8598;50.508;10.436;2022-09-09T10:04:15;1.80;;;0.83;;
16963;SDS011;8598;50.508;10.436;2022-09-09T10:06:45;3.60;;;0.90;;
16963;SDS011;8598;50.508;10.436;2022-09-09T10:09:22;4.03;;;1.60;;
16963;SDS011;8598;50.508;10.436;2022-09-09T10:11:54;6.30;;;1.20;;
16963;SDS011;8598;50.508;10.436;2022-09-09T10:14:29;5.07;;;1.27;;
16963;SDS011;8598;50.508;10.436;2022-09-09T10:17:03;3.63;;;1.20;;
16963;SDS011;8598;50.508;10.436;2022-09-09T10:19:40;2.30;;;0.97;;
16963;SDS011;8598;50.508;10.436;2022-09-09T10:22:19;4.23;;;0.90;;
16963;SDS011;8598;50.508;10.436;2022-09-09T10:28:14;2.20;;;1.00;;
16963;SDS011;8598;50.508;10.436;2022-09-09T10:30:59;7.47;;;1.30;;
16963;SDS011;8598;50.508;10.436;2022-09-09T10:33:40;5.40;;;1.00;;
16963;SDS011;8598;50.508;10.436;2022-09-09T10:36:17;3.00;;;1.00;;
16963;SDS011;8598;50.508;10.436;2022-09-09T10:38:47;4.27;;;1.00;;
16963;SDS011;8598;50.508;10.436;2022-09-09T10:41:19;2.60;;;1.00;;
16963;SDS011;8598;50.508;10.436;2022-09-09T10:43:54;2.27;;;0.90;;
16963;SDS011;8598;50.508;10.436;2022-09-09T10:47:00;3.57;;;0.80;;
16963;SDS011;8598;50.508;10.436;2022-09-09T10:49:51;3.50;;;1.13;;
16963;SDS011;8598;50.508;10.436;2022-09-09T10:52:34;2.97;;;0.80;;
16963;SDS011;8598;50.508;10.436;2022-09-09T10:57:37;7.43;;;1.00;;
16963;SDS011;8598;50.508;10.436;2022-09-09T11:00:13;2.33;;;1.00;;
16963;SDS011;8598;50.508;10.436;2022-09-09T11:02:42;4.80;;;0.90;;
16963;SDS011;8598;50.508;10.436;2022-09-09T11:05:10;1.57;;;0.73;;
16963;SDS011;8598;50.508;10.436;2022-09-09T11:07:46;1.27;;;0.60;;
16963;SDS011;8598;50.508;10.436;2022-09-09T11:10:19;2.77;;;0.90;;
16963;SDS011;8598;50.508;10.436;2022-09-09T11:12:50;1.73;;;0.50;;
16963;SDS011;8598;50.508;10.436;2022-09-09T11:15:26;3.20;;;0.80;;
16963;SDS011;8598;50.508;10.436;2022-09-09T11:17:58;2.70;;;0.77;;
16963;SDS011;8598;50.508;10.436;2022-09-09T11:20:27;2.27;;;0.60;;
16963;SDS011;8598;50.508;10.436;2022-09-09T11:22:57;4.43;;;0.83;;
16963;SDS011;8598;50.508;10.436;2022-09-09T11:25:29;3.40;;;0.60;;
16963;SDS011;8598;50.508;10.436;2022-09-09T11:28:06;3.77;;;1.10;;
16963;SDS011;8598;50.508;10.436;2022-09-09T11:30:50;2.53;;;0.60;;
16963;SDS011;8598;50.508;10.436;2022-09-09T11:33:30;3.80;;;0.90;;
16963;SDS011;8598;50.508;10.436;2022-09-09T11:36:21;1.17;;;0.70;;
16963;SDS011;8598;50.508;10.436;2022-09-09T11:39:17;4.47;;;0.67;;
16963;SDS011;8598;50.508;10.436;2022-09-09T11:42:06;6.20;;;0.80;;
16963;SDS011;8598;50.508;10.436;2022-09-09T11:44:41;1.53;;;0.70;;
16963;SDS011;8598;50.508;10.436;2022-09-09T11:47:15;1.60;;;0.60;;
16963;SDS011;8598;50.508;10.436;2022-09-09T11:49:49;2.67;;;0.97;;
16963;SDS011;8598;50.508;10.436;2022-09-09T11:52:20;2.27;;;0.60;;
16963;SDS011;8598;50.508;10.436;2022-09-09T11:55:09;4.80;;;0.70;;
16963;SDS011;8598;50.508;10.436;2022-09-09T11:57:37;3.13;;;1.00;;
16963;SDS011;8598;50.508;10.436;2022-09-09T12:00:06;8.10;;;1.43;;
16963;SDS011;8598;50.508;10.436;2022-09-09T12:02:48;4.77;;;1.20;;
16963;SDS011;8598;50.508;10.436;2022-09-09T12:05:16;3.10;;;0.73;;
16963;SDS011;8598;50.508;10.436;2022-09-09T12:07:46;2.47;;;0.90;;
16963;SDS011;8598;50.508;10.436;2022-09-09T12:10:21;4.77;;;1.97;;
16963;SDS011;8598;50.508;10.436;2022-09-09T12:12:51;3.90;;;2.20;;
16963;SDS011;8598;50.508;10.436;2022-09-09T12:15:27;3.33;;;1.40;;
16963;SDS011;8598;50.508;10.436;2022-09-09T12:17:55;1.97;;;0.80;;
16963;SDS011;8598;50.508;10.436;2022-09-09T12:20:26;1.63;;;0.90;;
16963;SDS011;8598;50.508;10.436;2022-09-09T12:26:05;0.73;;;0.70;;
16963;SDS011;8598;50.508;10.436;2022-09-09T12:28:45;1.80;;;0.50;;
16963;SDS011;8598;50.508;10.436;2022-09-09T12:31:20;2.40;;;0.80;;
16963;SDS011;8598;50.508;10.436;2022-09-09T12:33:50;1.23;;;0.63;;
16963;SDS011;8598;50.508;10.436;2022-09-09T12:36:18;2.27;;;0.93;;
16963;SDS011;8598;50.508;10.436;2022-09-09T12:38:48;2.60;;;0.90;;
16963;SDS011;8598;50.508;10.436;2022-09-09T12:41:19;2.50;;;0.90;;
16963;SDS011;8598;50.508;10.436;2022-09-09T12:43:47;4.33;;;0.70;;
16963;SDS011;8598;50.508;10.436;2022-09-09T12:46:17;2.47;;;0.70;;
16963;SDS011;8598;50.508;10.436;2022-09-09T12:48:51;6.40;;;0.87;;
16963;SDS011;8598;50.508;10.436;2022-09-09T12:51:21;1.53;;;0.80;;
16963;SDS011;8598;50.508;10.436;2022-09-09T12:53:52;2.60;;;0.97;;
16963;SDS011;8598;50.508;10.436;2022-09-09T12:56:21;0.77;;;0.70;;
16963;SDS011;8598;50.508;10.436;2022-09-09T12:58:52;1.80;;;0.70;;
16963;SDS011;8598;50.508;10.436;2022-09-09T13:01:22;0.77;;;0.50;;
16963;SDS011;8598;50.508;10.436;2022-09-09T13:03:51;4.00;;;0.90;;
16963;SDS011;8598;50.508;10.436;2022-09-09T13:06:19;2.93;;;1.00;;
16963;SDS011;8598;50.508;10.436;2022-09-09T13:08:48;2.13;;;0.93;;
16963;SDS011;8598;50.508;10.436;2022-09-09T13:11:16;2.07;;;0.87;;
16963;SDS011;8598;50.508;10.436;2022-09-09T13:13:50;1.90;;;0.50;;
16963;SDS011;8598;50.508;10.436;2022-09-09T13:16:20;3.87;;;1.50;;
16963;SDS011;8598;50.508;10.436;2022-09-09T13:18:49;4.47;;;1.17;;
16963;SDS011;8598;50.508;10.436;2022-09-09T13:21:16;4.37;;;0.90;;
16963;SDS011;8598;50.508;10.436;2022-09-09T13:23:48;2.53;;;1.10;;
16963;SDS011;8598;50.508;10.436;2022-09-09T13:26:20;3.60;;;1.10;;
16963;SDS011;8598;50.508;10.436;2022-09-09T13:28:49;2.57;;;1.00;;
16963;SDS011;8598;50.508;10.436;2022-09-09T13:31:21;6.00;;;1.20;;
16963;SDS011;8598;50.508;10.436;2022-09-09T13:33:52;1.97;;;1.00;;
16963;SDS011;8598;50.508;10.436;2022-09-09T13:36:27;3.13;;;1.20;;
16963;SDS011;8598;50.508;10.436;2022-09-09T13:38:56;5.07;;;1.43;;
16963;SDS011;8598;50.508;10.436;2022-09-09T13:41:25;2.73;;;1.13;;
16963;SDS011;8598;50.508;10.436;2022-09-09T13:43:57;2.30;;;1.13;;
16963;SDS011;8598;50.508;10.436;2022-09-09T13:46:26;2.10;;;0.83;;
16963;SDS011;8598;50.508;10.436;2022-09-09T13:48:57;1.63;;;0.90;;
16963;SDS011;8598;50.508;10.436;2022-09-09T13:51:30;2.37;;;1.23;;
16963;SDS011;8598;50.508;10.436;2022-09-09T13:54:02;6.77;;;1.20;;
16963;SDS011;8598;50.508;10.436;2022-09-09T13:56:29;2.53;;;1.00;;
16963;SDS011;8598;50.508;10.436;2022-09-09T13:58:58;3.00;;;1.07;;
16963;SDS011;8598;50.508;10.436;2022-09-09T14:01:25;5.53;;;1.57;;
16963;SDS011;8598;50.508;10.436;2022-09-09T14:03:52;2.90;;;2.03;;
16963;SDS011;8598;50.508;10.436;2022-09-09T14:06:19;4.57;;;1.63;;
16963;SDS011;8598;50.508;10.436;2022-09-09T14:08:46;4.93;;;2.50;;
16963;SDS011;8598;50.508;10.436;2022-09-09T14:11:13;4.17;;;2.33;;
16963;SDS011;8598;50.508;10.436;2022-09-09T14:13:40;2.10;;;1.70;;
16963;SDS011;8598;50.508;10.436;2022-09-09T14:16:08;3.43;;;1.10;;
16963;SDS011;8598;50.508;10.436;2022-09-09T14:18:35;10.43;;;1.20;;
16963;SDS011;8598;50.508;10.436;2022-09-09T14:21:04;2.57;;;1.10;;
16963;SDS011;8598;50.508;10.436;2022-09-09T14:23:31;3.67;;;1.10;;
16963;SDS011;8598;50.508;10.436;2022-09-09T14:25:57;4.23;;;1.30;;
16963;SDS011;8598;50.508;10.436;2022-09-09T14:28:24;2.77;;;1.00;;
16963;SDS011;8598;50.508;10.436;2022-09-09T14:30:51;2.67;;;0.83;;
16963;SDS011;8598;50.508;10.436;2022-09-09T14:33:19;2.93;;;0.87;;
16963;SDS011;8598;50.508;10.436;2022-09-09T14:35:46;2.00;;;1.10;;
16963;SDS011;8598;50.508;10.436;2022-09-09T14:38:13;2.27;;;0.90;;
16963;SDS011;8598;50.508;10.436;2022-09-09T14:40:40;2.20;;;0.50;;
16963;SDS011;8598;50.508;10.436;2022-09-09T14:43:11;3.13;;;0.90;;
16963;SDS011;8598;50.508;10.436;2022-09-09T14:45:38;4.60;;;1.10;;
16963;SDS011;8598;50.508;10.436;2022-09-09T14:48:05;2.70;;;1.10;;
16963;SDS011;8598;50.508;10.436;2022-09-09T14:50:33;5.70;;;0.83;;
16963;SDS011;8598;50.508;10.436;2022-09-09T14:53:04;1.37;;;1.00;;
16963;SDS011;8598;50.508;10.436;2022-09-09T14:55:32;2.93;;;0.93;;
16963;SDS011;8598;50.508;10.436;2022-09-09T14:57:58;2.87;;;1.17;;
16963;SDS011;8598;50.508;10.436;2022-09-09T15:00:25;2.17;;;0.90;;
16963;SDS011;8598;50.508;10.436;2022-09-09T15:02:52;1.70;;;1.27;;
16963;SDS011;8598;50.508;10.436;2022-09-09T15:05:19;4.43;;;0.70;;
16963;SDS011;8598;50.508;10.436;2022-09-09T15:07:48;2.57;;;0.90;;
16963;SDS011;8598;50.508;10.436;2022-09-09T15:10:15;1.80;;;0.73;;
16963;SDS011;8598;50.508;10.436;2022-09-09T15:12:43;1.80;;;0.87;;
16963;SDS011;8598;50.508;10.436;2022-09-09T15:15:10;1.90;;;0.97;;
16963;SDS011;8598;50.508;10.436;2022-09-09T15:17:37;1.50;;;0.60;;
16963;SDS011;8598;50.508;10.436;2022-09-09T15:20:04;2.37;;;0.70;;
16963;SDS011;8598;50.508;10.436;2022-09-09T15:22:32;2.67;;;0.70;;